sensor_id;sensor_type;location;lat;lon;timestamp;pressure;altitude;pressure_sealevel;temperature;humidity
13836;BME280;6988;52.614;13.500;2023-04-30T00:01:11;54549.31;;;-143.77;66.03
13836;BME280;6988;52.614;13.500;2023-04-30T00:06:03;54528.78;;;-143.77;64.97
13836;BME280;6988;52.614;13.500;2023-04-30T00:10:55;54567.78;;;-143.77;65.38
13836;BME280;6988;52.614;13.500;2023-04-30T00:15:46;54594.47;;;-143.77;65.89
13836;BME280;6988;52.614;13.500;2023-04-30T00:20:40;54545.22;;;-143.77;66.34
13836;BME280;6988;52.614;13.500;2023-04-30T00:25:32;54578.03;;;-143.77;66.60
13836;BME280;6988;52.614;13.500;2023-04-30T00:30:24;54606.78;;;-143.77;66.85
13836;BME280;6988;52.614;13.500;2023-04-30T00:35:16;54551.38;;;-143.77;67.93
13836;BME280;6988;52.614;13.500;2023-04-30T00:45:09;54588.31;;;-143.77;68.45
13836;BME280;6988;52.614;13.500;2023-04-30T00:50:02;54608.81;;;-143.77;68.28
13836;BME280;6988;52.614;13.500;2023-04-30T00:54:54;54565.72;;;-143.77;68.72
13836;BME280;6988;52.614;13.500;2023-04-30T00:59:48;54598.56;;;-143.77;68.96
13836;BME280;6988;52.614;13.500;2023-04-30T01:04:42;54623.19;;;-143.77;68.85
13836;BME280;6988;52.614;13.500;2023-04-30T01:09:35;54578.03;;;-143.77;69.11
13836;BME280;6988;52.614;13.500;2023-04-30T01:14:33;54584.19;;;-143.77;69.62
13836;BME280;6988;52.614;13.500;2023-04-30T01:19:40;54641.66;;;-143.77;69.90
13836;BME280;6988;52.614;13.500;2023-04-30T01:24:59;54592.41;;;-143.77;69.84
13836;BME280;6988;52.614;13.500;2023-04-30T01:30:00;54631.41;;;-143.77;69.96
13836;BME280;6988;52.614;13.500;2023-04-30T01:34:54;54647.81;;;-143.77;70.72
13836;BME280;6988;52.614;13.500;2023-04-30T01:40:09;54641.66;;;-143.77;71.38
13836;BME280;6988;52.614;13.500;2023-04-30T01:45:31;54627.28;;;-143.77;70.91
13836;BME280;6988;52.614;13.500;2023-04-30T01:50:35;54606.78;;;-143.77;70.82
13836;BME280;6988;52.614;13.500;2023-04-30T02:00:25;54649.88;;;-143.77;70.88
13836;BME280;6988;52.614;13.500;2023-04-30T02:05:19;54600.63;;;-143.77;71.30
13836;BME280;6988;52.614;13.500;2023-04-30T02:10:12;54672.44;;;-143.77;71.06
13836;BME280;6988;52.614;13.500;2023-04-30T02:15:07;54656.03;;;-143.77;71.28
13836;BME280;6988;52.614;13.500;2023-04-30T02:20:01;54645.75;;;-143.77;71.49
13836;BME280;6988;52.614;13.500;2023-04-30T02:24:53;54656.03;;;-143.77;71.91
13836;BME280;6988;52.614;13.500;2023-04-30T02:29:46;54664.22;;;-143.77;72.18
13836;BME280;6988;52.614;13.500;2023-04-30T02:34:38;54658.06;;;-143.77;72.35
13836;BME280;6988;52.614;13.500;2023-04-30T02:39:31;54656.03;;;-143.77;72.68
13836;BME280;6988;52.614;13.500;2023-04-30T02:44:24;54649.88;;;-143.77;72.72
13836;BME280;6988;52.614;13.500;2023-04-30T02:49:16;54711.44;;;-143.77;72.92
13836;BME280;6988;52.614;13.500;2023-04-30T02:54:08;54664.22;;;-143.77;72.95
13836;BME280;6988;52.614;13.500;2023-04-30T02:59:01;54633.44;;;-143.77;73.11
13836;BME280;6988;52.614;13.500;2023-04-30T03:03:53;54645.75;;;-143.77;73.17
13836;BME280;6988;52.614;13.500;2023-04-30T03:08:45;54664.22;;;-143.77;73.22
13836;BME280;6988;52.614;13.500;2023-04-30T03:13:38;54682.69;;;-143.77;73.75
13836;BME280;6988;52.614;13.500;2023-04-30T03:18:32;54725.78;;;-143.77;73.20
13836;BME280;6988;52.614;13.500;2023-04-30T03:23:26;54660.13;;;-143.77;73.56
13836;BME280;6988;52.614;13.500;2023-04-30T03:28:18;54688.84;;;-143.77;73.76
13836;BME280;6988;52.614;13.500;2023-04-30T03:33:10;54697.06;;;-143.77;73.92
13836;BME280;6988;52.614;13.500;2023-04-30T03:43:06;54668.34;;;-143.77;74.78
13836;BME280;6988;52.614;13.500;2023-04-30T03:47:59;54690.91;;;-143.77;74.51
13836;BME280;6988;52.614;13.500;2023-04-30T03:52:50;54680.66;;;-143.77;75.33
13836;BME280;6988;52.614;13.500;2023-04-30T03:57:43;54692.97;;;-143.77;75.73
13836;BME280;6988;52.614;13.500;2023-04-30T04:02:36;54692.97;;;-143.77;75.73
13836;BME280;6988;52.614;13.500;2023-04-30T04:07:28;54725.78;;;-143.77;76.00
13836;BME280;6988;52.614;13.500;2023-04-30T04:12:20;54682.69;;;-143.77;76.12
13836;BME280;6988;52.614;13.500;2023-04-30T04:17:13;54725.78;;;-143.77;76.65
13836;BME280;6988;52.614;13.500;2023-04-30T04:22:08;54727.84;;;-143.77;76.56
13836;BME280;6988;52.614;13.500;2023-04-30T04:27:00;54680.66;;;-143.77;76.25
13836;BME280;6988;52.614;13.500;2023-04-30T04:31:52;54682.69;;;-143.77;76.37
13836;BME280;6988;52.614;13.500;2023-04-30T04:36:45;54682.69;;;-143.77;76.74
13836;BME280;6988;52.614;13.500;2023-04-30T04:41:39;54680.66;;;-143.77;76.36
13836;BME280;6988;52.614;13.500;2023-04-30T04:46:35;54680.66;;;-143.77;76.99
13836;BME280;6988;52.614;13.500;2023-04-30T04:51:29;54692.97;;;-143.77;76.35
13836;BME280;6988;52.614;13.500;2023-04-30T04:56:21;54651.91;;;-143.77;77.24
13836;BME280;6988;52.614;13.500;2023-04-30T05:01:14;54668.34;;;-143.77;76.70
13836;BME280;6988;52.614;13.500;2023-04-30T05:06:10;54660.13;;;-143.77;76.17
13836;BME280;6988;52.614;13.500;2023-04-30T05:11:01;54606.78;;;-143.77;76.67
13836;BME280;6988;52.614;13.500;2023-04-30T05:15:53;54598.56;;;-143.77;74.27
13836;BME280;6988;52.614;13.500;2023-04-30T05:20:47;54602.66;;;-143.77;73.85
13836;BME280;6988;52.614;13.500;2023-04-30T05:25:39;54590.34;;;-143.77;73.00
13836;BME280;6988;52.614;13.500;2023-04-30T05:30:31;54600.63;;;-143.77;72.42
13836;BME280;6988;52.614;13.500;2023-04-30T05:35:23;54555.47;;;-143.77;72.17
13836;BME280;6988;52.614;13.500;2023-04-30T05:40:17;54555.47;;;-143.77;71.62
13836;BME280;6988;52.614;13.500;2023-04-30T05:45:09;54557.53;;;-143.77;70.27
13836;BME280;6988;52.614;13.500;2023-04-30T05:50:02;54543.16;;;-143.77;70.03
13836;BME280;6988;52.614;13.500;2023-04-30T05:54:54;54549.31;;;-143.77;69.87
13836;BME280;6988;52.614;13.500;2023-04-30T05:59:47;54553.41;;;-143.77;69.54
13836;BME280;6988;52.614;13.500;2023-04-30T06:04:39;54553.41;;;-143.77;68.34
13836;BME280;6988;52.614;13.500;2023-04-30T06:09:31;54578.03;;;-143.77;68.38
13836;BME280;6988;52.614;13.500;2023-04-30T06:14:23;54528.78;;;-143.77;67.39
13836;BME280;6988;52.614;13.500;2023-04-30T06:19:17;54504.19;;;-143.77;66.31
13836;BME280;6988;52.614;13.500;2023-04-30T06:24:09;54475.44;;;-143.77;64.35
13836;BME280;6988;52.614;13.500;2023-04-30T06:29:01;54422.09;;;-143.77;64.21
13836;BME280;6988;52.614;13.500;2023-04-30T06:33:52;54379.00;;;-143.77;62.27
13836;BME280;6988;52.614;13.500;2023-04-30T06:38:46;54340.03;;;-143.77;61.81
13836;BME280;6988;52.614;13.500;2023-04-30T06:43:38;54368.75;;;-143.77;60.83
13836;BME280;6988;52.614;13.500;2023-04-30T06:48:29;54307.19;;;-143.77;57.85
13836;BME280;6988;52.614;13.500;2023-04-30T06:53:21;54381.06;;;-143.77;58.36
13836;BME280;6988;52.614;13.500;2023-04-30T06:58:15;54276.41;;;-143.77;56.60
13836;BME280;6988;52.614;13.500;2023-04-30T07:03:08;54243.59;;;-143.77;55.61
13836;BME280;6988;52.614;13.500;2023-04-30T07:08:01;54241.53;;;-143.77;54.24
13836;BME280;6988;52.614;13.500;2023-04-30T07:12:54;54247.69;;;-143.77;55.48
13836;BME280;6988;52.614;13.500;2023-04-30T07:17:47;54196.41;;;-143.77;53.16
13836;BME280;6988;52.614;13.500;2023-04-30T07:22:39;54186.13;;;-143.77;53.87
13836;BME280;6988;52.614;13.500;2023-04-30T07:27:34;54167.66;;;-143.77;53.52
13836;BME280;6988;52.614;13.500;2023-04-30T07:32:25;54143.06;;;-143.77;49.19
13836;BME280;6988;52.614;13.500;2023-04-30T07:37:21;54147.16;;;-143.77;46.60
13836;BME280;6988;52.614;13.500;2023-04-30T07:42:13;54122.53;;;-143.77;47.67
13836;BME280;6988;52.614;13.500;2023-04-30T07:47:05;54200.50;;;-143.77;48.02
13836;BME280;6988;52.614;13.500;2023-04-30T07:51:57;54118.44;;;-143.77;46.90
13836;BME280;6988;52.614;13.500;2023-04-30T07:56:51;54079.44;;;-143.77;46.09
13836;BME280;6988;52.614;13.500;2023-04-30T08:01:44;54110.22;;;-143.77;45.28
13836;BME280;6988;52.614;13.500;2023-04-30T08:06:35;54063.03;;;-143.77;44.42
13836;BME280;6988;52.614;13.500;2023-04-30T08:11:27;54040.47;;;-143.77;43.84
13836;BME280;6988;52.614;13.500;2023-04-30T08:16:20;54026.09;;;-143.77;43.46
13836;BME280;6988;52.614;13.500;2023-04-30T08:21:12;54243.59;;;-143.77;43.13
13836;BME280;6988;52.614;13.500;2023-04-30T08:26:04;54038.41;;;-143.77;43.08
13836;BME280;6988;52.614;13.500;2023-04-30T08:30:56;53983.00;;;-143.77;42.43
13836;BME280;6988;52.614;13.500;2023-04-30T08:41:02;53968.66;;;-143.77;41.71
13836;BME280;6988;52.614;13.500;2023-04-30T08:45:56;53970.72;;;-143.77;40.06
13836;BME280;6988;52.614;13.500;2023-04-30T08:50:48;53939.94;;;-143.77;39.29
13836;BME280;6988;52.614;13.500;2023-04-30T08:55:41;53954.28;;;-143.77;38.63
13836;BME280;6988;52.614;13.500;2023-04-30T09:00:36;53954.28;;;-143.77;39.51
13836;BME280;6988;52.614;13.500;2023-04-30T09:05:29;53968.66;;;-143.77;38.81
13836;BME280;6988;52.614;13.500;2023-04-30T09:10:21;53923.53;;;-143.77;37.11
13836;BME280;6988;52.614;13.500;2023-04-30T09:15:13;53931.72;;;-143.77;37.57
13836;BME280;6988;52.614;13.500;2023-04-30T09:20:11;53909.16;;;-143.77;40.12
13836;BME280;6988;52.614;13.500;2023-04-30T09:30:30;53861.97;;;-143.77;37.09
13836;BME280;6988;52.614;13.500;2023-04-30T09:35:32;53853.75;;;-143.77;36.31
13836;BME280;6988;52.614;13.500;2023-04-30T09:40:36;53833.25;;;-143.77;36.70
13836;BME280;6988;52.614;13.500;2023-04-30T09:45:40;53804.53;;;-143.77;35.47
13836;BME280;6988;52.614;13.500;2023-04-30T09:50:49;53798.38;;;-143.77;35.39
13836;BME280;6988;52.614;13.500;2023-04-30T09:55:42;53835.31;;;-143.77;35.29
13836;BME280;6988;52.614;13.500;2023-04-30T10:00:36;53802.47;;;-143.77;34.81
13836;BME280;6988;52.614;13.500;2023-04-30T10:05:29;53816.84;;;-143.77;35.63
13836;BME280;6988;52.614;13.500;2023-04-30T10:10:25;53757.34;;;-143.77;36.59
13836;BME280;6988;52.614;13.500;2023-04-30T10:15:37;53753.25;;;-143.77;35.25
13836;BME280;6988;52.614;13.500;2023-04-30T10:20:33;53712.22;;;-143.77;32.74
13836;BME280;6988;52.614;13.500;2023-04-30T10:25:28;53689.63;;;-143.77;34.85
13836;BME280;6988;52.614;13.500;2023-04-30T10:30:21;53716.31;;;-143.77;32.19
13836;BME280;6988;52.614;13.500;2023-04-30T10:35:21;53728.63;;;-143.77;34.16
13836;BME280;6988;52.614;13.500;2023-04-30T10:40:15;53706.06;;;-143.77;34.25
13836;BME280;6988;52.614;13.500;2023-04-30T10:45:11;53704.00;;;-143.77;34.51
13836;BME280;6988;52.614;13.500;2023-04-30T10:50:04;53706.06;;;-143.77;33.66
13836;BME280;6988;52.614;13.500;2023-04-30T10:55:04;53693.75;;;-143.77;33.73
13836;BME280;6988;52.614;13.500;2023-04-30T11:00:24;53677.34;;;-143.77;32.44
13836;BME280;6988;52.614;13.500;2023-04-30T11:05:17;53699.91;;;-143.77;32.14
13836;BME280;6988;52.614;13.500;2023-04-30T11:10:09;53695.78;;;-143.77;34.51
13836;BME280;6988;52.614;13.500;2023-04-30T11:15:12;53658.88;;;-143.77;34.29
13836;BME280;6988;52.614;13.500;2023-04-30T11:20:11;53660.91;;;-143.77;33.39
13836;BME280;6988;52.614;13.500;2023-04-30T11:25:07;53589.13;;;-143.77;33.43
13836;BME280;6988;52.614;13.500;2023-04-30T11:30:01;53568.59;;;-143.77;32.18
13836;BME280;6988;52.614;13.500;2023-04-30T11:34:54;53611.69;;;-143.77;33.41
13836;BME280;6988;52.614;13.500;2023-04-30T11:39:49;53595.28;;;-143.77;33.22
13836;BME280;6988;52.614;13.500;2023-04-30T11:44:41;53564.50;;;-143.77;31.94
13836;BME280;6988;52.614;13.500;2023-04-30T11:49:33;53593.22;;;-143.77;32.05
13836;BME280;6988;52.614;13.500;2023-04-30T11:54:25;53652.72;;;-143.77;32.21
13836;BME280;6988;52.614;13.500;2023-04-30T11:59:18;53638.34;;;-143.77;32.60
13836;BME280;6988;52.614;13.500;2023-04-30T12:04:10;53656.81;;;-143.77;32.64
13836;BME280;6988;52.614;13.500;2023-04-30T12:09:03;53619.88;;;-143.77;33.37
13836;BME280;6988;52.614;13.500;2023-04-30T12:14:00;53593.22;;;-143.77;32.81
13836;BME280;6988;52.614;13.500;2023-04-30T12:18:55;53578.84;;;-143.77;33.07
13836;BME280;6988;52.614;13.500;2023-04-30T12:23:47;53646.56;;;-143.77;31.07
13836;BME280;6988;52.614;13.500;2023-04-30T12:28:39;53605.53;;;-143.77;31.48
13836;BME280;6988;52.614;13.500;2023-04-30T12:33:31;53603.47;;;-143.77;32.65
13836;BME280;6988;52.614;13.500;2023-04-30T12:38:24;53568.59;;;-143.77;31.96
13836;BME280;6988;52.614;13.500;2023-04-30T12:43:17;53558.34;;;-143.77;32.46
13836;BME280;6988;52.614;13.500;2023-04-30T12:48:09;53550.13;;;-143.77;32.37
13836;BME280;6988;52.614;13.500;2023-04-30T12:53:01;53541.94;;;-143.77;31.43
13836;BME280;6988;52.614;13.500;2023-04-30T12:58:05;53564.50;;;-143.77;30.85
13836;BME280;6988;52.614;13.500;2023-04-30T13:02:58;53558.34;;;-143.77;31.27
13836;BME280;6988;52.614;13.500;2023-04-30T13:08:00;53576.81;;;-143.77;32.25
13836;BME280;6988;52.614;13.500;2023-04-30T13:12:52;53556.28;;;-143.77;31.03
13836;BME280;6988;52.614;13.500;2023-04-30T13:17:46;53511.16;;;-143.77;31.17
13836;BME280;6988;52.614;13.500;2023-04-30T13:22:37;53572.72;;;-143.77;30.79
13836;BME280;6988;52.614;13.500;2023-04-30T13:27:29;53552.19;;;-143.77;29.88
13836;BME280;6988;52.614;13.500;2023-04-30T13:32:21;53597.31;;;-143.77;29.24
13836;BME280;6988;52.614;13.500;2023-04-30T13:37:14;53558.34;;;-143.77;30.51
13836;BME280;6988;52.614;13.500;2023-04-30T13:42:06;53554.25;;;-143.77;30.69
13836;BME280;6988;52.614;13.500;2023-04-30T13:46:58;53611.69;;;-143.77;31.02
13836;BME280;6988;52.614;13.500;2023-04-30T13:51:50;53613.72;;;-143.77;29.66
13836;BME280;6988;52.614;13.500;2023-04-30T13:56:43;53609.63;;;-143.77;30.21
13836;BME280;6988;52.614;13.500;2023-04-30T14:01:35;53611.69;;;-143.77;29.87
13836;BME280;6988;52.614;13.500;2023-04-30T14:06:27;53609.63;;;-143.77;29.98
13836;BME280;6988;52.614;13.500;2023-04-30T14:11:20;53638.34;;;-143.77;28.46
13836;BME280;6988;52.614;13.500;2023-04-30T14:16:13;53626.03;;;-143.77;29.84
13836;BME280;6988;52.614;13.500;2023-04-30T14:21:05;53628.09;;;-143.77;29.86
13836;BME280;6988;52.614;13.500;2023-04-30T14:25:57;53640.41;;;-143.77;29.38
13836;BME280;6988;52.614;13.500;2023-04-30T14:30:49;53683.50;;;-143.77;29.22
13836;BME280;6988;52.614;13.500;2023-04-30T14:35:43;53687.59;;;-143.77;29.57
13836;BME280;6988;52.614;13.500;2023-04-30T14:40:35;53679.38;;;-143.77;30.59
13836;BME280;6988;52.614;13.500;2023-04-30T14:45:27;53665.03;;;-143.77;30.17
13836;BME280;6988;52.614;13.500;2023-04-30T14:50:18;53665.03;;;-143.77;29.65
13836;BME280;6988;52.614;13.500;2023-04-30T14:55:12;53640.41;;;-143.77;30.49
13836;BME280;6988;52.614;13.500;2023-04-30T15:00:05;53646.56;;;-143.77;29.68
13836;BME280;6988;52.614;13.500;2023-04-30T15:04:57;53687.59;;;-143.77;28.29
13836;BME280;6988;52.614;13.500;2023-04-30T15:09:49;53765.53;;;-143.77;30.61
13836;BME280;6988;52.614;13.500;2023-04-30T15:14:43;53775.81;;;-143.77;30.79
13836;BME280;6988;52.614;13.500;2023-04-30T15:19:35;53839.41;;;-143.77;32.25
13836;BME280;6988;52.614;13.500;2023-04-30T15:24:27;53843.50;;;-143.77;31.20
13836;BME280;6988;52.614;13.500;2023-04-30T15:29:18;53808.63;;;-143.77;31.36
13836;BME280;6988;52.614;13.500;2023-04-30T15:34:12;53806.56;;;-143.77;30.91
13836;BME280;6988;52.614;13.500;2023-04-30T15:39:03;53790.16;;;-143.77;30.65
13836;BME280;6988;52.614;13.500;2023-04-30T15:43:55;53837.34;;;-143.77;30.22
13836;BME280;6988;52.614;13.500;2023-04-30T15:48:47;53827.09;;;-143.77;30.82
13836;BME280;6988;52.614;13.500;2023-04-30T15:53:40;53843.50;;;-143.77;30.90
13836;BME280;6988;52.614;13.500;2023-04-30T15:58:32;53825.03;;;-143.77;31.41
13836;BME280;6988;52.614;13.500;2023-04-30T16:03:24;53825.03;;;-143.77;30.53
13836;BME280;6988;52.614;13.500;2023-04-30T16:08:16;53855.81;;;-143.77;31.04
13836;BME280;6988;52.614;13.500;2023-04-30T16:13:09;53876.34;;;-143.77;30.33
13836;BME280;6988;52.614;13.500;2023-04-30T16:18:01;53937.88;;;-143.77;30.65
13836;BME280;6988;52.614;13.500;2023-04-30T16:22:54;53980.97;;;-143.77;31.38
13836;BME280;6988;52.614;13.500;2023-04-30T16:27:46;53970.72;;;-143.77;32.00
13836;BME280;6988;52.614;13.500;2023-04-30T16:32:40;53978.91;;;-143.77;32.22
13836;BME280;6988;52.614;13.500;2023-04-30T16:37:32;54032.25;;;-143.77;33.30
13836;BME280;6988;52.614;13.500;2023-04-30T16:42:24;54034.31;;;-143.77;33.08
13836;BME280;6988;52.614;13.500;2023-04-30T16:47:18;54034.31;;;-143.77;33.12
13836;BME280;6988;52.614;13.500;2023-04-30T16:52:11;54054.81;;;-143.77;32.79
13836;BME280;6988;52.614;13.500;2023-04-30T16:57:03;54089.72;;;-143.77;33.19
13836;BME280;6988;52.614;13.500;2023-04-30T17:01:55;54052.78;;;-143.77;33.26
13836;BME280;6988;52.614;13.500;2023-04-30T17:06:49;54126.63;;;-143.77;33.97
13836;BME280;6988;52.614;13.500;2023-04-30T17:11:43;54099.97;;;-143.77;34.94
13836;BME280;6988;52.614;13.500;2023-04-30T17:16:35;54106.13;;;-143.77;33.99
13836;BME280;6988;52.614;13.500;2023-04-30T17:21:26;54151.25;;;-143.77;34.80
13836;BME280;6988;52.614;13.500;2023-04-30T17:26:19;54136.91;;;-143.77;36.32
13836;BME280;6988;52.614;13.500;2023-04-30T17:31:12;54145.09;;;-143.77;36.59
13836;BME280;6988;52.614;13.500;2023-04-30T17:36:05;54126.63;;;-143.77;35.65
13836;BME280;6988;52.614;13.500;2023-04-30T17:40:57;54177.94;;;-143.77;37.21
13836;BME280;6988;52.614;13.500;2023-04-30T17:45:49;54196.41;;;-143.77;36.37
13836;BME280;6988;52.614;13.500;2023-04-30T17:50:44;54171.78;;;-143.77;36.93
13836;BME280;6988;52.614;13.500;2023-04-30T17:55:36;54194.34;;;-143.77;38.66
13836;BME280;6988;52.614;13.500;2023-04-30T18:00:28;54204.59;;;-143.77;39.09
13836;BME280;6988;52.614;13.500;2023-04-30T18:05:21;54200.50;;;-143.77;40.33
13836;BME280;6988;52.614;13.500;2023-04-30T18:10:14;54235.38;;;-143.77;40.96
13836;BME280;6988;52.614;13.500;2023-04-30T18:15:06;54251.78;;;-143.77;40.69
13836;BME280;6988;52.614;13.500;2023-04-30T18:19:59;54260.00;;;-143.77;41.60
13836;BME280;6988;52.614;13.500;2023-04-30T18:24:51;54239.47;;;-143.77;41.56
13836;BME280;6988;52.614;13.500;2023-04-30T18:29:44;54255.91;;;-143.77;41.95
13836;BME280;6988;52.614;13.500;2023-04-30T18:34:38;54272.31;;;-143.77;42.46
13836;BME280;6988;52.614;13.500;2023-04-30T18:39:30;54268.22;;;-143.77;42.68
13836;BME280;6988;52.614;13.500;2023-04-30T18:44:28;54276.41;;;-143.77;43.15
13836;BME280;6988;52.614;13.500;2023-04-30T18:49:22;54282.56;;;-143.77;43.27
13836;BME280;6988;52.614;13.500;2023-04-30T18:54:14;54278.47;;;-143.77;43.71
13836;BME280;6988;52.614;13.500;2023-04-30T18:59:07;54323.59;;;-143.77;43.64
13836;BME280;6988;52.614;13.500;2023-04-30T19:03:59;54315.41;;;-143.77;44.17
13836;BME280;6988;52.614;13.500;2023-04-30T19:08:54;54292.84;;;-143.77;44.44
13836;BME280;6988;52.614;13.500;2023-04-30T19:13:46;54331.81;;;-143.77;45.21
13836;BME280;6988;52.614;13.500;2023-04-30T19:18:38;54315.41;;;-143.77;45.28
13836;BME280;6988;52.614;13.500;2023-04-30T19:23:30;54346.19;;;-143.77;45.19
13836;BME280;6988;52.614;13.500;2023-04-30T19:28:24;54358.50;;;-143.77;45.49
13836;BME280;6988;52.614;13.500;2023-04-30T19:33:15;54335.91;;;-143.77;46.74
13836;BME280;6988;52.614;13.500;2023-04-30T19:38:07;54344.13;;;-143.77;48.19
13836;BME280;6988;52.614;13.500;2023-04-30T19:42:59;54368.75;;;-143.77;49.61
13836;BME280;6988;52.614;13.500;2023-04-30T19:52:54;54403.63;;;-143.77;52.29
13836;BME280;6988;52.614;13.500;2023-04-30T19:57:46;54395.44;;;-143.77;53.26
13836;BME280;6988;52.614;13.500;2023-04-30T20:02:38;54434.41;;;-143.77;54.82
13836;BME280;6988;52.614;13.500;2023-04-30T20:07:30;54459.03;;;-143.77;55.38
13836;BME280;6988;52.614;13.500;2023-04-30T20:12:23;54448.78;;;-143.77;55.86
13836;BME280;6988;52.614;13.500;2023-04-30T20:17:15;54436.47;;;-143.77;56.13
13836;BME280;6988;52.614;13.500;2023-04-30T20:22:07;54403.63;;;-143.77;56.36
13836;BME280;6988;52.614;13.500;2023-04-30T20:27:02;54426.19;;;-143.77;56.71
13836;BME280;6988;52.614;13.500;2023-04-30T20:31:57;54387.22;;;-143.77;57.00
13836;BME280;6988;52.614;13.500;2023-04-30T20:36:49;54454.94;;;-143.77;57.41
13836;BME280;6988;52.614;13.500;2023-04-30T20:41:42;54438.50;;;-143.77;57.47
13836;BME280;6988;52.614;13.500;2023-04-30T20:46:37;54452.88;;;-143.77;57.16
13836;BME280;6988;52.614;13.500;2023-04-30T20:51:30;54456.97;;;-143.77;57.76
13836;BME280;6988;52.614;13.500;2023-04-30T20:56:22;54475.44;;;-143.77;58.05
13836;BME280;6988;52.614;13.500;2023-04-30T21:01:14;54456.97;;;-143.77;58.27
13836;BME280;6988;52.614;13.500;2023-04-30T21:06:06;54454.94;;;-143.77;58.51
13836;BME280;6988;52.614;13.500;2023-04-30T21:10:59;54452.88;;;-143.77;58.71
13836;BME280;6988;52.614;13.500;2023-04-30T21:15:51;54444.66;;;-143.77;58.96
13836;BME280;6988;52.614;13.500;2023-04-30T21:20:46;54485.72;;;-143.77;59.13
13836;BME280;6988;52.614;13.500;2023-04-30T21:25:37;54475.44;;;-143.77;59.85
13836;BME280;6988;52.614;13.500;2023-04-30T21:30:31;54489.81;;;-143.77;59.80
13836;BME280;6988;52.614;13.500;2023-04-30T21:35:23;54504.19;;;-143.77;60.28
13836;BME280;6988;52.614;13.500;2023-04-30T21:40:15;54532.91;;;-143.77;60.06
13836;BME280;6988;52.614;13.500;2023-04-30T21:45:07;54463.13;;;-143.77;60.54
13836;BME280;6988;52.614;13.500;2023-04-30T22:04:23;54541.09;;;-143.77;61.18
13836;BME280;6988;52.614;13.500;2023-04-30T22:09:15;54549.31;;;-143.77;62.38
13836;BME280;6988;52.614;13.500;2023-04-30T22:19:25;54547.25;;;-143.77;63.22
13836;BME280;6988;52.614;13.500;2023-04-30T22:24:17;54489.81;;;-143.77;63.55
13836;BME280;6988;52.614;13.500;2023-04-30T22:29:08;54537.00;;;-143.77;63.64
13836;BME280;6988;52.614;13.500;2023-04-30T22:34:01;54508.28;;;-143.77;63.51
13836;BME280;6988;52.614;13.500;2023-04-30T22:38:55;54567.78;;;-143.77;63.57
13836;BME280;6988;52.614;13.500;2023-04-30T22:43:47;54565.72;;;-143.77;63.98
13836;BME280;6988;52.614;13.500;2023-04-30T22:48:39;54557.53;;;-143.77;63.64
13836;BME280;6988;52.614;13.500;2023-04-30T22:53:33;54563.69;;;-143.77;63.74
13836;BME280;6988;52.614;13.500;2023-04-30T22:58:26;54569.84;;;-143.77;64.27
13836;BME280;6988;52.614;13.500;2023-04-30T23:03:17;54553.41;;;-143.77;64.67
13836;BME280;6988;52.614;13.500;2023-04-30T23:08:09;54580.09;;;-143.77;64.68
13836;BME280;6988;52.614;13.500;2023-04-30T23:13:02;54541.09;;;-143.77;64.74
13836;BME280;6988;52.614;13.500;2023-04-30T23:17:55;54524.69;;;-143.77;65.20
13836;BME280;6988;52.614;13.500;2023-04-30T23:22:48;54567.78;;;-143.77;64.65
13836;BME280;6988;52.614;13.500;2023-04-30T23:27:42;54561.63;;;-143.77;64.78
13836;BME280;6988;52.614;13.500;2023-04-30T23:32:33;54573.94;;;-143.77;65.13
13836;BME280;6988;52.614;13.500;2023-04-30T23:37:26;54559.56;;;-143.77;65.45
13836;BME280;6988;52.614;13.500;2023-04-30T23:42:18;54559.56;;;-143.77;65.36
13836;BME280;6988;52.614;13.500;2023-04-30T23:47:10;54619.09;;;-143.77;65.36
13836;BME280;6988;52.614;13.500;2023-04-30T23:52:02;54604.72;;;-143.77;65.17
13836;BME280;6988;52.614;13.500;2023-04-30T23:56:55;54557.53;;;-143.77;65.55
